createdAt,value
2019-02-12T00:00:52.003Z,5.70
2019-02-12T00:03:21.131Z,5.60
2019-02-12T00:05:50.116Z,5.60
2019-02-12T00:08:19.111Z,5.60
2019-02-12T00:10:48.185Z,5.60
2019-02-12T00:13:17.996Z,5.60
2019-02-12T00:15:47.039Z,5.60
2019-02-12T00:18:16.033Z,5.60
2019-02-12T00:20:45.016Z,5.60
2019-02-12T00:23:14.078Z,5.60
2019-02-12T00:25:43.119Z,5.60
2019-02-12T00:28:12.037Z,5.50
2019-02-12T00:30:41.118Z,5.50
2019-02-12T00:33:10.147Z,5.50
2019-02-12T00:35:39.279Z,5.50
2019-02-12T00:38:08.362Z,5.50
2019-02-12T00:40:37.328Z,5.50
2019-02-12T00:43:06.418Z,5.50
2019-02-12T00:45:35.444Z,5.50
2019-02-12T00:48:04.511Z,5.40
2019-02-12T00:50:33.491Z,5.40
2019-02-12T00:53:02.485Z,5.40
2019-02-12T00:55:31.548Z,5.40
2019-02-12T00:58:00.595Z,5.40
2019-02-12T01:00:29.587Z,5.40
2019-02-12T01:02:58.587Z,5.40
2019-02-12T01:05:27.581Z,5.40
2019-02-12T01:07:56.682Z,5.40
2019-02-12T01:10:25.739Z,5.40
2019-02-12T01:12:54.705Z,5.40
2019-02-12T01:15:23.760Z,5.40
2019-02-12T01:17:52.778Z,5.40
2019-02-12T01:20:21.775Z,5.40
2019-02-12T01:22:50.848Z,5.40
2019-02-12T01:25:19.899Z,5.40
2019-02-12T01:27:48.842Z,5.40
2019-02-12T01:30:18.000Z,5.40
2019-02-12T01:32:47.113Z,5.40
2019-02-12T01:35:16.176Z,5.40
2019-02-12T01:37:45.244Z,5.40
2019-02-12T01:40:14.644Z,5.40
2019-02-12T01:42:43.796Z,5.40
2019-02-12T01:45:13.519Z,5.40
2019-02-12T01:47:42.521Z,5.40
2019-02-12T01:50:13.390Z,5.40
2019-02-12T01:52:42.504Z,5.40
2019-02-12T01:55:11.535Z,5.40
2019-02-12T01:57:40.604Z,5.40
2019-02-12T02:00:12.071Z,5.40
2019-02-12T02:02:41.177Z,5.50
2019-02-12T02:05:10.360Z,5.50
2019-02-12T02:07:39.470Z,5.50
2019-02-12T02:10:10.472Z,5.50
2019-02-12T02:12:39.518Z,5.60
2019-02-12T02:15:09.935Z,5.60
2019-02-12T02:17:38.927Z,5.60
2019-02-12T02:20:08.811Z,5.70
2019-02-12T02:22:37.862Z,5.70
2019-02-12T02:25:08.023Z,5.70
2019-02-12T02:27:36.979Z,5.70
2019-02-12T02:30:07.208Z,5.70
2019-02-12T02:32:36.231Z,5.80
2019-02-12T02:35:05.642Z,5.80
2019-02-12T02:37:34.853Z,5.80
2019-02-12T02:40:04.108Z,5.90
2019-02-12T02:42:33.199Z,5.90
2019-02-12T02:45:02.242Z,5.90
2019-02-12T02:47:31.222Z,5.90
2019-02-12T02:50:00.308Z,5.90
2019-02-12T02:52:29.595Z,5.90
2019-02-12T02:54:58.656Z,5.90
2019-02-12T02:57:27.721Z,5.90
2019-02-12T02:59:56.698Z,5.90
2019-02-12T03:02:25.747Z,5.90
2019-02-12T03:04:54.799Z,6.00
2019-02-12T03:07:23.788Z,6.00
2019-02-12T03:09:52.831Z,6.00
2019-02-12T03:12:21.790Z,6.00
2019-02-12T03:14:50.841Z,6.00
2019-02-12T03:17:19.904Z,6.00
2019-02-12T03:19:48.976Z,6.00
2019-02-12T03:22:18.031Z,6.00
2019-02-12T03:24:47.238Z,6.00
2019-02-12T03:27:16.370Z,6.00
2019-02-12T03:29:45.326Z,6.00
2019-02-12T03:32:14.327Z,6.00
2019-02-12T03:34:43.419Z,6.00
2019-02-12T03:37:12.405Z,6.00
2019-02-12T03:39:41.342Z,6.00
2019-02-12T03:42:10.407Z,6.00
2019-02-12T03:44:39.462Z,6.00
2019-02-12T03:47:08.498Z,6.00
2019-02-12T03:49:37.571Z,6.00
2019-02-12T03:52:12.629Z,6.10
2019-02-12T03:54:37.403Z,6.00
2019-02-12T03:57:06.472Z,6.10
2019-02-12T03:59:35.523Z,6.10
2019-02-12T04:02:04.604Z,6.10
2019-02-12T04:04:33.656Z,6.10
2019-02-12T04:07:02.659Z,6.20
2019-02-12T04:09:31.774Z,6.20
2019-02-12T04:12:00.793Z,6.20
2019-02-12T04:14:29.795Z,6.30
2019-02-12T04:16:58.774Z,6.30
2019-02-12T04:19:27.833Z,6.40
2019-02-12T04:21:56.893Z,6.40
2019-02-12T04:24:25.872Z,6.40
2019-02-12T04:26:54.852Z,6.40
2019-02-12T04:29:23.871Z,6.40
2019-02-12T04:31:52.948Z,6.50
2019-02-12T04:34:21.967Z,6.50
2019-02-12T04:36:51.006Z,6.50
2019-02-12T04:39:20.001Z,6.60
2019-02-12T04:41:49.011Z,6.60
2019-02-12T04:44:17.991Z,6.60
2019-02-12T04:46:47.047Z,6.60
2019-02-12T04:49:16.026Z,6.70
2019-02-12T04:51:45.047Z,6.70
2019-02-12T04:54:14.021Z,6.70
2019-02-12T04:56:43.081Z,6.70
2019-02-12T04:59:12.014Z,6.70
2019-02-12T05:01:41.091Z,6.70
2019-02-12T05:04:10.135Z,6.70
2019-02-12T05:06:39.083Z,6.80
2019-02-12T05:09:22.265Z,6.80
2019-02-12T05:11:53.944Z,6.80
2019-02-12T05:14:22.983Z,6.80
2019-02-12T05:16:52.092Z,6.80
2019-02-12T05:19:21.119Z,6.90
2019-02-12T05:21:50.079Z,6.90
2019-02-12T05:24:19.155Z,6.90
2019-02-12T05:26:48.195Z,6.90
2019-02-12T05:29:18.493Z,6.90
2019-02-12T05:31:47.531Z,7.00
2019-02-12T05:34:16.531Z,7.00
2019-02-12T05:36:45.661Z,7.00
2019-02-12T05:39:14.627Z,7.00
2019-02-12T05:41:43.681Z,7.00
2019-02-12T05:44:12.703Z,7.00
2019-02-12T05:46:41.851Z,7.00
2019-02-12T05:49:10.912Z,7.10
2019-02-12T05:51:39.946Z,7.00
2019-02-12T05:54:08.833Z,7.10
2019-02-12T05:56:37.947Z,7.00
2019-02-12T05:59:06.834Z,7.00
2019-02-12T06:01:35.887Z,7.00
2019-02-12T06:04:04.948Z,7.00
2019-02-12T06:06:33.961Z,7.00
2019-02-12T06:09:04.278Z,7.00
2019-02-12T06:11:33.340Z,6.90
2019-02-12T06:14:02.319Z,6.90
2019-02-12T06:16:31.275Z,6.90
2019-02-12T06:19:00.419Z,6.90
2019-02-12T06:21:29.511Z,7.00
2019-02-12T06:23:58.529Z,7.00
2019-02-12T06:26:27.502Z,7.00
2019-02-12T06:28:56.515Z,7.00
2019-02-12T06:31:25.590Z,7.00
2019-02-12T06:33:54.564Z,7.10
2019-02-12T06:36:23.623Z,7.10
2019-02-12T06:38:52.686Z,7.00
2019-02-12T06:41:21.679Z,7.10
2019-02-12T06:43:50.744Z,7.10
2019-02-12T06:46:19.688Z,7.10
2019-02-12T06:48:48.739Z,7.00
2019-02-12T06:51:17.727Z,7.00
2019-02-12T06:53:46.754Z,7.00
2019-02-12T06:56:15.778Z,7.00
2019-02-12T06:58:44.795Z,7.00
2019-02-12T07:01:13.895Z,7.00
2019-02-12T07:03:51.175Z,7.00
2019-02-12T07:06:44.358Z,7.00
2019-02-12T07:09:35.301Z,7.00
2019-02-12T07:12:47.742Z,7.00
2019-02-12T07:15:23.777Z,7.00
2019-02-12T07:18:34.115Z,7.00
2019-02-12T07:21:30.422Z,7.00
2019-02-12T07:24:12.701Z,6.90
2019-02-12T07:27:18.191Z,6.90
2019-02-12T07:30:15.032Z,6.90
2019-02-12T07:33:13.524Z,6.90
2019-02-12T07:36:16.772Z,6.90
2019-02-12T07:39:15.508Z,7.00
2019-02-12T07:42:59.240Z,7.00
2019-02-12T07:46:09.920Z,7.00
2019-02-12T07:49:11.612Z,7.00
2019-02-12T07:52:16.765Z,7.10
2019-02-12T07:55:14.540Z,7.10
2019-02-12T07:58:20.824Z,7.10
2019-02-12T08:01:30.980Z,7.10
2019-02-12T08:04:36.960Z,7.10
2019-02-12T08:07:31.822Z,7.20
2019-02-12T08:10:45.122Z,7.20
2019-02-12T08:13:48.962Z,7.30
2019-02-12T08:17:14.573Z,7.40
2019-02-12T08:20:08.733Z,7.40
2019-02-12T08:23:04.873Z,7.50
2019-02-12T08:26:20.352Z,7.50
2019-02-12T08:29:24.231Z,7.60
2019-02-12T08:32:24.733Z,7.60
2019-02-12T08:35:22.095Z,7.70
2019-02-12T08:38:09.044Z,7.70
2019-02-12T08:41:07.985Z,7.80
2019-02-12T08:44:17.367Z,7.80
2019-02-12T08:47:17.059Z,7.90
2019-02-12T08:50:25.109Z,7.90
2019-02-12T08:53:25.894Z,8.00
2019-02-12T08:56:25.546Z,8.00
2019-02-12T08:59:19.906Z,8.00
2019-02-12T09:02:12.658Z,8.10
2019-02-12T09:05:13.819Z,8.10
2019-02-12T09:07:48.803Z,8.20
2019-02-12T09:11:17.203Z,8.30
2019-02-12T09:14:12.570Z,8.30
2019-02-12T09:17:24.138Z,8.40
2019-02-12T09:20:33.873Z,8.40
2019-02-12T09:23:33.352Z,8.50
2019-02-12T09:26:15.339Z,8.50
2019-02-12T09:29:30.449Z,8.60
2019-02-12T09:32:41.009Z,8.70
2019-02-12T09:36:18.431Z,8.70
2019-02-12T09:39:22.086Z,8.70
2019-02-12T09:42:28.544Z,8.80
2019-02-12T09:45:33.314Z,8.90
2019-02-12T09:48:15.621Z,8.90
2019-02-12T09:51:06.847Z,9.10
2019-02-12T09:54:08.601Z,9.20
2019-02-12T09:57:06.207Z,9.30
2019-02-12T10:00:03.515Z,9.40
2019-02-12T10:03:22.058Z,9.60
2019-02-12T10:06:22.235Z,9.60
2019-02-12T10:09:47.252Z,9.70
2019-02-12T10:12:45.839Z,9.70
2019-02-12T10:16:03.324Z,9.80
2019-02-12T10:19:15.478Z,9.90
2019-02-12T10:22:30.478Z,10.10
2019-02-12T10:25:32.205Z,10.20
2019-02-12T10:28:48.652Z,10.50
2019-02-12T10:31:23.800Z,10.70
2019-02-12T10:33:57.099Z,10.70
2019-02-12T10:36:27.022Z,10.70
2019-02-12T10:38:56.553Z,10.70
2019-02-12T10:41:26.314Z,10.70
2019-02-12T10:43:55.325Z,10.80
2019-02-12T10:46:25.080Z,10.80
2019-02-12T10:48:54.137Z,11.00
2019-02-12T10:51:29.015Z,11.20
2019-02-12T10:53:58.593Z,11.30
2019-02-12T10:56:27.731Z,11.60
2019-02-12T10:58:56.850Z,11.70
2019-02-12T11:01:25.932Z,11.80
2019-02-12T11:03:54.999Z,12.00
2019-02-12T11:06:23.967Z,12.10
2019-02-12T11:08:52.968Z,12.20
2019-02-12T11:11:22.004Z,12.40
2019-02-12T11:13:51.235Z,12.50
2019-02-12T11:16:20.396Z,12.60
2019-02-12T11:18:49.395Z,12.70
2019-02-12T11:21:18.614Z,13.10
2019-02-12T11:23:47.559Z,13.20
2019-02-12T11:26:16.950Z,13.20
2019-02-12T11:28:46.084Z,13.20
2019-02-12T11:31:16.530Z,13.00
2019-02-12T11:33:45.667Z,12.90
2019-02-12T11:36:14.998Z,12.70
2019-02-12T11:38:44.382Z,12.80
2019-02-12T11:41:13.450Z,12.80
2019-02-12T11:43:42.612Z,12.80
2019-02-12T11:46:11.787Z,12.70
2019-02-12T11:48:40.963Z,12.60
2019-02-12T11:51:10.132Z,12.60
2019-02-12T11:53:39.332Z,12.40
2019-02-12T11:56:08.545Z,12.30
2019-02-12T11:58:37.833Z,12.20
2019-02-12T12:01:20.536Z,12.10
2019-02-12T12:03:49.842Z,12.10
2019-02-12T12:06:19.145Z,12.00
2019-02-12T12:08:48.275Z,11.90
2019-02-12T12:11:17.562Z,11.90
2019-02-12T12:13:46.712Z,11.90
2019-02-12T12:16:16.251Z,11.60
2019-02-12T12:18:45.263Z,11.60
2019-02-12T12:21:14.346Z,11.50
2019-02-12T12:23:43.714Z,11.50
2019-02-12T12:26:12.973Z,11.60
2019-02-12T12:28:44.880Z,11.60
2019-02-12T12:31:13.965Z,11.60
2019-02-12T12:33:43.124Z,11.90
2019-02-12T12:36:12.295Z,12.00
2019-02-12T12:38:41.560Z,12.20
2019-02-12T12:41:10.996Z,12.40
2019-02-12T12:43:40.221Z,12.60
2019-02-12T12:46:09.292Z,12.70
2019-02-12T12:48:40.010Z,13.00
2019-02-12T12:51:09.483Z,13.20
2019-02-12T12:53:38.828Z,13.20
2019-02-12T12:56:08.001Z,13.40
2019-02-12T12:58:37.072Z,13.60
2019-02-12T13:01:06.297Z,13.50
2019-02-12T13:03:35.356Z,13.80
2019-02-12T13:06:05.008Z,14.00
2019-02-12T13:08:34.747Z,14.20
2019-02-12T13:11:04.856Z,14.30
2019-02-12T13:13:33.887Z,14.50
2019-02-12T13:16:03.090Z,14.60
2019-02-12T13:18:32.114Z,14.70
2019-02-12T13:21:01.791Z,14.50
2019-02-12T13:23:31.305Z,14.60
2019-02-12T13:26:00.753Z,14.70
2019-02-12T13:28:30.156Z,14.70
2019-02-12T13:31:01.506Z,14.70
2019-02-12T13:33:31.934Z,14.60
2019-02-12T13:36:06.175Z,14.40
2019-02-12T13:38:35.563Z,14.30
2019-02-12T13:41:04.958Z,14.20
2019-02-12T13:43:35.186Z,14.20
2019-02-12T13:46:04.589Z,14.10
2019-02-12T13:48:52.252Z,14.20
2019-02-12T13:51:22.152Z,14.20
2019-02-12T13:54:01.093Z,14.30
2019-02-12T13:56:30.355Z,14.30
2019-02-12T13:58:59.881Z,14.10
2019-02-12T14:01:29.428Z,14.00
2019-02-12T14:03:58.884Z,13.90
2019-02-12T14:06:28.338Z,13.70
2019-02-12T14:08:57.387Z,13.50
2019-02-12T14:11:26.490Z,13.40
2019-02-12T14:13:56.159Z,13.40
2019-02-12T14:16:25.223Z,13.30
2019-02-12T14:18:54.803Z,13.10
2019-02-12T14:21:23.845Z,12.90
2019-02-12T14:23:56.091Z,12.90
2019-02-12T14:26:25.408Z,13.00
2019-02-12T14:28:57.903Z,13.00
2019-02-12T14:31:27.309Z,12.80
2019-02-12T14:34:03.220Z,12.80
2019-02-12T14:37:20.528Z,12.80
2019-02-12T14:43:37.716Z,12.80
2019-02-12T14:46:11.222Z,12.40
2019-02-12T14:48:42.849Z,12.30
2019-02-12T14:51:11.867Z,12.30
2019-02-12T14:53:41.164Z,12.40
2019-02-12T14:56:11.553Z,12.60
2019-02-12T14:58:41.118Z,12.70
2019-02-12T15:01:10.518Z,12.80
2019-02-12T15:03:40.619Z,12.80
2019-02-12T15:06:10.221Z,12.80
2019-02-12T15:11:36.907Z,12.60
2019-02-12T15:14:06.320Z,12.50
2019-02-12T15:16:40.741Z,12.30
2019-02-12T15:19:13.722Z,12.10
2019-02-12T15:21:43.129Z,11.80
2019-02-12T15:24:13.366Z,11.70
2019-02-12T15:26:52.140Z,11.60
2019-02-12T15:29:35.290Z,11.70
2019-02-12T15:32:14.427Z,11.80
2019-02-12T15:34:43.841Z,11.70
2019-02-12T15:37:12.895Z,11.60
2019-02-12T15:39:41.898Z,11.40
2019-02-12T15:42:11.410Z,11.30
2019-02-12T15:44:41.184Z,11.10
2019-02-12T15:47:12.681Z,11.00
2019-02-12T15:49:42.039Z,10.90
2019-02-12T15:52:11.188Z,10.70
2019-02-12T15:54:40.435Z,10.60
2019-02-12T15:57:09.578Z,10.40
2019-02-12T15:59:38.476Z,10.40
2019-02-12T16:02:07.524Z,10.40
2019-02-12T16:04:36.504Z,10.20
2019-02-12T16:07:05.608Z,10.10
2019-02-12T16:09:35.134Z,10.00
2019-02-12T16:12:06.068Z,9.90
2019-02-12T16:14:35.366Z,9.80
2019-02-12T16:17:04.379Z,9.70
2019-02-12T16:19:33.402Z,9.70
2019-02-12T16:22:02.409Z,9.60
2019-02-12T16:24:31.453Z,9.50
2019-02-12T16:27:00.620Z,9.50
2019-02-12T16:29:29.753Z,9.40
2019-02-12T16:31:58.720Z,9.20
2019-02-12T16:34:27.840Z,9.10
2019-02-12T16:36:57.196Z,9.00
2019-02-12T16:39:26.357Z,9.00
2019-02-12T16:41:55.343Z,8.90
2019-02-12T16:44:25.056Z,8.90
2019-02-12T16:46:54.473Z,8.80
2019-02-12T16:49:23.830Z,8.80
2019-02-12T16:51:52.896Z,8.80
2019-02-12T16:54:21.940Z,8.70
2019-02-12T16:56:50.923Z,8.60
2019-02-12T16:59:19.933Z,8.60
2019-02-12T17:01:49.010Z,8.50
2019-02-12T17:04:17.967Z,8.50
2019-02-12T17:06:46.871Z,8.40
2019-02-12T17:09:15.851Z,8.40
2019-02-12T17:11:44.905Z,8.40
2019-02-12T17:14:13.968Z,8.30
2019-02-12T17:16:43.019Z,8.30
2019-02-12T17:19:12.099Z,8.30
2019-02-12T17:21:41.096Z,8.30
2019-02-12T17:24:10.188Z,8.30
2019-02-12T17:26:39.212Z,8.30
2019-02-12T17:29:08.292Z,8.30
2019-02-12T17:31:37.291Z,8.30
2019-02-12T17:34:06.343Z,8.30
2019-02-12T17:36:35.483Z,8.30
2019-02-12T17:39:05.814Z,8.30
2019-02-12T17:41:34.883Z,8.30
2019-02-12T17:44:04.016Z,8.30
2019-02-12T17:46:33.101Z,8.30
2019-02-12T17:49:02.054Z,8.30
2019-02-12T17:51:31.023Z,8.30
2019-02-12T17:54:00.024Z,8.20
2019-02-12T17:56:29.022Z,8.20
2019-02-12T17:58:58.036Z,8.20
2019-02-12T18:01:27.118Z,8.20
2019-02-12T18:03:56.133Z,8.10
2019-02-12T18:06:25.103Z,8.20
2019-02-12T18:08:54.025Z,8.20
2019-02-12T18:11:22.911Z,8.20
2019-02-12T18:13:51.863Z,8.10
2019-02-12T18:16:20.932Z,8.20
2019-02-12T18:18:50.016Z,8.20
2019-02-12T18:21:18.991Z,8.20
2019-02-12T18:23:47.963Z,8.20
2019-02-12T18:26:17.019Z,8.20
2019-02-12T18:28:46.048Z,8.20
2019-02-12T18:31:15.085Z,8.20
2019-02-12T18:33:44.170Z,8.10
2019-02-12T18:36:13.239Z,8.10
2019-02-12T18:38:42.215Z,8.10
2019-02-12T18:41:11.227Z,8.10
2019-02-12T18:43:40.334Z,8.10
2019-02-12T18:46:09.427Z,8.10
2019-02-12T18:48:38.494Z,8.00
2019-02-12T18:51:07.512Z,8.00
2019-02-12T18:53:36.517Z,8.00
2019-02-12T18:56:05.597Z,8.00
2019-02-12T18:58:34.626Z,8.00
2019-02-12T19:01:03.660Z,8.00
2019-02-12T19:03:32.723Z,8.00
2019-02-12T19:06:01.840Z,8.00
2019-02-12T19:08:30.923Z,8.00
2019-02-12T19:10:59.972Z,8.00
2019-02-12T19:13:28.955Z,8.00
2019-02-12T19:15:58.008Z,8.00
2019-02-12T19:18:27.707Z,8.10
2019-02-12T19:20:56.806Z,8.00
2019-02-12T19:23:25.852Z,8.00
2019-02-12T19:25:54.922Z,8.00
2019-02-12T19:28:23.960Z,8.00
2019-02-12T19:30:53.157Z,8.00
2019-02-12T19:33:22.264Z,8.10
2019-02-12T19:35:51.258Z,8.10
2019-02-12T19:38:20.244Z,8.10
2019-02-12T19:40:49.231Z,8.10
2019-02-12T19:43:18.239Z,8.10
2019-02-12T19:45:47.254Z,8.10
2019-02-12T19:48:16.319Z,8.10
2019-02-12T19:50:45.352Z,8.10
2019-02-12T19:53:14.324Z,8.10
2019-02-12T19:55:43.403Z,8.10
2019-02-12T19:58:12.459Z,8.00
2019-02-12T20:00:41.460Z,8.00
2019-02-12T20:03:10.467Z,8.00
2019-02-12T20:05:39.380Z,8.00
2019-02-12T20:08:08.449Z,8.00
2019-02-12T20:10:37.508Z,8.00
2019-02-12T20:13:06.568Z,8.00
2019-02-12T20:15:35.636Z,8.00
2019-02-12T20:18:04.911Z,8.00
2019-02-12T20:20:33.899Z,8.00
2019-02-12T20:23:02.845Z,8.00
2019-02-12T20:25:31.939Z,7.90
2019-02-12T20:28:00.986Z,7.90
2019-02-12T20:30:30.044Z,7.90
2019-02-12T20:32:59.064Z,7.90
2019-02-12T20:35:36.090Z,7.90
2019-02-12T20:37:58.727Z,7.90
2019-02-12T20:40:27.815Z,7.90
2019-02-12T20:42:56.843Z,7.90
2019-02-12T20:45:25.845Z,7.90
2019-02-12T20:47:54.935Z,7.90
2019-02-12T20:50:24.047Z,8.00
2019-02-12T20:52:53.019Z,8.10
2019-02-12T20:55:22.065Z,8.10
2019-02-12T20:57:51.031Z,8.20
2019-02-12T21:00:20.407Z,8.20
2019-02-12T21:02:49.491Z,8.20
2019-02-12T21:05:18.542Z,8.20
2019-02-12T21:07:47.561Z,8.20
2019-02-12T21:10:16.988Z,8.30
2019-02-12T21:12:46.087Z,8.30
2019-02-12T21:15:17.242Z,8.30
2019-02-12T21:17:46.251Z,8.30
2019-02-12T21:20:15.333Z,8.30
2019-02-12T21:22:44.410Z,8.30
2019-02-12T21:25:13.494Z,8.30
2019-02-12T21:27:42.486Z,8.30
2019-02-12T21:30:13.843Z,8.30
2019-02-12T21:32:42.934Z,8.30
2019-02-12T21:35:12.645Z,8.40
2019-02-12T21:37:41.591Z,8.30
2019-02-12T21:40:13.510Z,8.30
2019-02-12T21:42:42.541Z,8.40
2019-02-12T21:45:12.777Z,8.40
2019-02-12T21:47:42.054Z,8.40
2019-02-12T21:50:11.207Z,8.30
2019-02-12T21:52:40.259Z,8.30
2019-02-12T21:55:09.705Z,8.40
2019-02-12T21:57:38.653Z,8.30
2019-02-12T22:00:10.038Z,8.30
2019-02-12T22:02:38.963Z,8.30
2019-02-12T22:05:09.180Z,8.30
2019-02-12T22:07:38.263Z,8.20
2019-02-12T22:10:09.835Z,8.30
2019-02-12T22:12:38.855Z,8.20
2019-02-12T22:15:10.866Z,8.20
2019-02-12T22:17:40.372Z,8.20
2019-02-12T22:20:10.982Z,8.20
2019-02-12T22:22:40.031Z,8.20
2019-02-12T22:25:09.240Z,8.20
2019-02-12T22:27:40.517Z,8.20
2019-02-12T22:30:14.667Z,8.20
2019-02-12T22:32:43.651Z,8.20
2019-02-12T22:35:14.541Z,8.20
2019-02-12T22:37:43.514Z,8.20
2019-02-12T22:40:13.069Z,8.20
2019-02-12T22:42:42.032Z,8.20
2019-02-12T22:45:13.655Z,8.20
2019-02-12T22:47:42.691Z,8.20
2019-02-12T22:50:11.912Z,8.20
2019-02-12T22:52:41.042Z,8.20
2019-02-12T22:55:10.107Z,8.20
2019-02-12T22:57:39.183Z,8.20
2019-02-12T23:00:18.751Z,8.20
2019-02-12T23:02:47.819Z,8.20
2019-02-12T23:05:16.881Z,8.20
2019-02-12T23:07:45.924Z,8.20
2019-02-12T23:10:15.003Z,8.20
2019-02-12T23:12:44.075Z,8.20
2019-02-12T23:15:13.247Z,8.20
2019-02-12T23:17:42.306Z,8.20
2019-02-12T23:20:11.388Z,8.20
2019-02-12T23:22:40.422Z,8.20
2019-02-12T23:25:09.519Z,8.20
2019-02-12T23:27:38.580Z,8.20
2019-02-12T23:30:08.223Z,8.20
2019-02-12T23:32:37.315Z,8.10
2019-02-12T23:35:06.505Z,8.20
2019-02-12T23:37:35.513Z,8.10
2019-02-12T23:40:04.699Z,8.10
2019-02-12T23:42:33.766Z,8.10
2019-02-12T23:45:02.892Z,8.20
2019-02-12T23:47:31.856Z,8.20
2019-02-12T23:50:00.907Z,8.20
2019-02-12T23:52:29.823Z,8.20
2019-02-12T23:54:58.744Z,8.20
2019-02-12T23:57:27.755Z,8.20
2019-02-12T23:59:56.824Z,8.20
